»·PEaware :: N7359T KSNA-KCRQ

N7359T :: KSNA-KCRQ

FLIGHT INFORMATION

Flight Status: Arrived
Operator: Privately registered:
United States
More flights under this callsign
Pilot: Utku A. (15598)
Aircraft: CESSNA T210 TURBO CENTURION
(T210)
More flights by this aircraft type
Origin: KSNA John Wayne-Orange Co
United States
Destination: KCRQ McClellan-Palomar
United States
More flights between these airports :: More routes between these airports
Route: +V23 OCN
File this flight plan on PilotEdge
Remarks:
Altitude:
(Current/Filed)
5,000ft
Speed:
(Current/Filed)
150kts
Departed: 06-Oct-18 04:56 PM
Arrived: 06-Oct-18 05:27 PM
Distance/Time
Traveled:
44nm/0:31
Distance/Time
To Go:
Arrived

Flight Plot

Page will automatically refresh every two minutes.


Map Options




Map Legend


Flown Route
Filed Route
Departure Airport
Arrival Airport
Navaid (VOR, NDB)
Fix

Horizontal Profiles

Position Reports

Time Latitude Longitude Heading Altitude Ground
Speed
06-Oct-18 16:39 33.667171 -117.872134 225 60ft 0kts
06-Oct-18 16:40 33.667171 -117.872134 225 60ft 0kts
06-Oct-18 16:41 33.667171 -117.872134 225 60ft 0kts
06-Oct-18 16:42 33.667171 -117.872134 225 60ft 0kts
06-Oct-18 16:43 33.667171 -117.872134 225 60ft 0kts
06-Oct-18 16:44 33.667171 -117.872134 225 60ft 0kts
06-Oct-18 16:45 33.667171 -117.872134 225 60ft 0kts
06-Oct-18 16:46 33.667171 -117.872134 225 60ft 0kts
06-Oct-18 16:47 33.667171 -117.872134 225 60ft 0kts
06-Oct-18 16:48 33.667171 -117.872134 225 60ft 0kts
06-Oct-18 16:49 33.667171 -117.872134 225 60ft 0kts
06-Oct-18 16:50 33.667171 -117.872134 225 60ft 0kts
06-Oct-18 16:51 33.668064 -117.872016 43 60ft 12kts
06-Oct-18 16:52 33.671186 -117.868809 34 60ft 10kts
06-Oct-18 16:53 33.673873 -117.867191 11 60ft 8kts
06-Oct-18 16:54 33.677272 -117.865078 28 60ft 13kts
06-Oct-18 16:55 33.679797 -117.863505 5 60ft 4kts
06-Oct-18 16:56 33.679936 -117.863573 332 60ft 0kts
06-Oct-18 16:57 33.679936 -117.863573 332 60ft 0kts
06-Oct-18 16:58 33.676530 -117.866451 206 119ft 80kts
06-Oct-18 16:59 33.650851 -117.872764 182 1966ft 86kts
06-Oct-18 17:00 33.630814 -117.874576 184 3240ft 89kts
06-Oct-18 17:01 33.601829 -117.875500 186 4930ft 99kts
06-Oct-18 17:02 33.573854 -117.876308 183 5035ft 133kts
06-Oct-18 17:03 33.548351 -117.833627 115 4999ft 139kts
06-Oct-18 17:04 33.537808 -117.795755 116 4973ft 146kts
06-Oct-18 17:05 33.518488 -117.754071 131 5035ft 138kts
06-Oct-18 17:06 33.487905 -117.717776 145 5081ft 166kts
06-Oct-18 17:07 33.450999 -117.681162 144 4950ft 174kts
06-Oct-18 17:08 33.414532 -117.645183 135 5019ft 171kts
06-Oct-18 17:09 33.382873 -117.601792 127 4924ft 175kts
06-Oct-18 17:10 33.356772 -117.553692 123 4962ft 173kts
06-Oct-18 17:11 33.327059 -117.508848 137 4974ft 171kts
06-Oct-18 17:12 33.290387 -117.472588 142 4973ft 171kts
06-Oct-18 17:13 33.255080 -117.434217 137 4982ft 172kts
06-Oct-18 17:14 33.231756 -117.387755 85 5006ft 175kts
06-Oct-18 17:15 33.237720 -117.329853 84 4933ft 180kts
06-Oct-18 17:16 33.244323 -117.271387 84 4921ft 177kts
06-Oct-18 17:17 33.252737 -117.214408 82 5027ft 178kts
06-Oct-18 17:18 33.260630 -117.155425 86 4936ft 179kts
06-Oct-18 17:19 33.268567 -117.097175 89 4976ft 175kts
06-Oct-18 17:20 33.236485 -117.064677 161 3887ft 156kts
06-Oct-18 17:21 33.200746 -117.047060 160 3511ft 122kts
06-Oct-18 17:22 33.170700 -117.055080 219 3445ft 121kts
06-Oct-18 17:23 33.158820 -117.090401 254 3293ft 125kts
06-Oct-18 17:24 33.153344 -117.127323 256 2982ft 107kts
06-Oct-18 17:25 33.146841 -117.165148 256 2341ft 123kts
06-Oct-18 17:26 33.140263 -117.206321 256 1516ft 123kts
06-Oct-18 17:27 33.134859 -117.239237 254 966ft 90kts
06-Oct-18 17:28 33.130501 -117.266336 254 455ft 75kts
06-Oct-18 17:29 33.128047 -117.281138 258 298ft 20kts
06-Oct-18 17:30 33.127194 -117.281529 76 298ft 11kts
06-Oct-18 17:31 33.127124 -117.279561 355 298ft 2kts
06-Oct-18 17:32 33.127219 -117.279513 81 298ft 0kts
06-Oct-18 17:33 33.127219 -117.279513 81 298ft 0kts
06-Oct-18 17:34 33.127219 -117.279513 81 298ft 0kts
06-Oct-18 17:35 33.127219 -117.279513 81 298ft 0kts
06-Oct-18 17:36 33.127219 -117.279513 81 298ft 0kts
06-Oct-18 17:37 33.127219 -117.279513 81 298ft 0kts

Navigation Log

Ident Type
Flight plan parsing failed, navigation log unavailable